Time;durP1;ratioP1;P1;durP2;ratioP2;P2;SDS_P1;SDS_P2;PMS_P1;PMS_P2;Temp;Humidity;BMP_temperature;BMP_pressure;BME280_temperature;BME280_humidity;BME280_pressure;Samples;Min_cycle;Max_cycle;Signal;HPM_P1;HPM_P2
2021/08/02 00:01:41;;;;;;;;;;;;;;;22.98;66.05;99570.72;1692077;84;22688;-78
2021/08/02 00:04:09;;;;;;;12.07;8.15;;;;;;;22.98;66.12;99575.58;1714377;82;20926;-78
2021/08/02 00:06:45;;;;;;;13.98;8.38;;;;;;;22.95;66.21;99580.56;1741888;82;21006;-79
2021/08/02 00:09:11;;;;;;;17.48;8.58;;;;;;;22.97;66.25;99573.08;1709795;82;21410;-78
2021/08/02 00:11:42;;;;;;;11.48;8.30;;;;;;;22.95;66.37;99576.00;1742288;82;21384;-78
2021/08/02 00:14:09;;;;;;;15.60;8.90;;;;;;;22.94;66.47;99577.58;1741329;82;21870;-78
2021/08/02 00:16:38;;;;;;;11.15;8.38;;;;;;;22.94;66.56;99566.28;1741318;82;20994;-78
2021/08/02 00:19:06;;;;;;;15.72;9.40;;;;;;;22.93;66.63;99574.06;1741437;82;21485;-78
2021/08/02 00:21:37;;;;;;;11.60;8.55;;;;;;;22.92;66.77;99564.86;1749166;82;20986;-78
2021/08/02 00:24:04;;;;;;;10.95;8.75;;;;;;;22.89;66.92;99562.62;1744738;82;21053;-78
2021/08/02 00:26:31;;;;;;;11.28;9.03;;;;;;;22.89;66.98;99563.97;1749063;82;22183;-79
2021/08/02 00:29:00;;;;;;;14.63;9.05;;;;;;;22.83;67.21;99562.94;1714507;82;21440;-79
2021/08/02 00:31:28;;;;;;;12.70;8.63;;;;;;;22.83;67.30;99560.25;1741893;82;20981;-79
2021/08/02 00:33:56;;;;;;;13.88;8.88;;;;;;;22.80;67.37;99562.05;1740995;82;21004;-79
2021/08/02 00:36:47;;;;;;;14.07;8.78;;;;;;;22.79;67.46;99550.45;1741554;82;21576;-79
2021/08/02 00:39:40;;;;;;;11.70;8.88;;;;;;;22.88;67.28;99552.89;1720019;83;22267;-79
2021/08/02 00:42:35;;;;;;;11.28;8.75;;;;;;;22.90;67.21;99557.53;1724597;82;21103;-79
2021/08/02 00:45:15;;;;;;;11.18;8.38;;;;;;;22.81;67.31;99560.47;1720266;82;20957;-78
2021/08/02 00:47:59;;;;;;;10.80;8.33;;;;;;;22.68;67.64;99559.75;1742506;81;20977;-78
2021/08/02 00:50:29;;;;;;;12.07;8.73;;;;;;;22.66;67.64;99563.19;1743430;82;21402;-78
2021/08/02 00:53:04;;;;;;;11.48;8.78;;;;;;;22.59;67.76;99563.27;1746467;82;21752;-77
2021/08/02 00:55:35;;;;;;;14.47;8.70;;;;;;;22.48;68.04;99558.56;1743446;82;20958;-77
2021/08/02 00:58:09;;;;;;;14.65;8.80;;;;;;;22.42;68.19;99549.52;1747046;82;21029;-76
2021/08/02 01:00:37;;;;;;;9.23;8.33;;;;;;;22.41;68.32;99545.18;1743945;82;21002;-78
2021/08/02 01:03:08;;;;;;;11.80;8.83;;;;;;;22.38;68.47;99548.81;1744693;81;21039;-78
2021/08/02 01:05:36;;;;;;;13.35;8.80;;;;;;;22.33;68.66;99543.28;1707112;83;21832;-78
2021/08/02 01:08:22;;;;;;;12.43;8.98;;;;;;;22.30;68.87;99549.10;1740576;81;21025;-78
2021/08/02 01:10:53;;;;;;;12.75;9.65;;;;;;;22.27;69.03;99547.65;1743816;82;20945;-78
2021/08/02 01:13:19;;;;;;;15.18;9.25;;;;;;;22.24;69.13;99543.53;1696493;82;20944;-78
2021/08/02 01:15:48;;;;;;;12.98;9.58;;;;;;;22.25;69.24;99544.36;1714195;82;21064;-79
2021/08/02 01:18:18;;;;;;;12.35;9.58;;;;;;;22.25;69.36;99548.39;1748654;82;22660;-79
2021/08/02 01:20:49;;;;;;;13.72;9.40;;;;;;;22.23;69.51;99546.45;1751521;81;21008;-79
2021/08/02 01:23:16;;;;;;;15.15;9.63;;;;;;;22.22;69.57;99537.55;1750680;82;21048;-79
2021/08/02 01:25:57;;;;;;;10.88;9.40;;;;;;;22.24;69.62;99539.50;1717112;83;21451;-79
2021/08/02 01:28:33;;;;;;;13.70;9.60;;;;;;;22.23;69.70;99535.16;1712882;83;21020;-79
2021/08/02 01:31:02;;;;;;;13.10;9.20;;;;;;;22.21;69.75;99538.59;1696716;83;22460;-79
2021/08/02 01:33:34;;;;;;;14.05;9.48;;;;;;;22.19;69.77;99543.34;1735609;82;21572;-80
2021/08/02 01:36:11;;;;;;;14.18;9.80;;;;;;;22.15;69.83;99541.33;1739792;82;20957;-79
2021/08/02 01:38:39;;;;;;;13.25;9.68;;;;;;;22.09;69.94;99536.80;1748662;82;21016;-79
2021/08/02 01:41:07;;;;;;;13.85;9.48;;;;;;;22.08;69.97;99543.23;1740366;81;20997;-78
2021/08/02 01:43:37;;;;;;;13.08;9.70;;;;;;;22.03;70.07;99541.69;1741647;82;21852;-78
2021/08/02 01:46:26;;;;;;;13.18;10.05;;;;;;;22.00;70.15;99545.61;1741526;82;21141;-77
2021/08/02 01:49:03;;;;;;;11.97;9.73;;;;;;;21.95;70.20;99543.59;1748676;82;21048;-78
2021/08/02 01:51:39;;;;;;;12.03;9.45;;;;;;;21.96;70.31;99544.41;1679070;83;21025;-77
2021/08/02 01:54:17;;;;;;;13.20;9.43;;;;;;;21.94;70.42;99545.16;1704001;83;21015;-76
2021/08/02 01:56:56;;;;;;;12.33;9.78;;;;;;;21.91;70.51;99543.73;1694883;84;21850;-76
2021/08/02 01:59:31;;;;;;;14.55;9.90;;;;;;;21.87;70.69;99549.21;1696226;84;21431;-76
2021/08/02 02:02:03;;;;;;;16.07;10.25;;;;;;;21.83;70.82;99552.56;1647154;84;20976;-76
2021/08/02 02:04:39;;;;;;;14.13;10.28;;;;;;;21.79;70.94;99562.90;1678095;84;21583;-76
2021/08/02 02:07:06;;;;;;;14.15;10.05;;;;;;;21.76;71.06;99562.52;1696450;84;21016;-76
2021/08/02 02:09:36;;;;;;;15.32;9.90;;;;;;;21.72;71.18;99560.78;1700680;84;23088;-77
2021/08/02 02:12:05;;;;;;;12.68;10.20;;;;;;;21.74;71.26;99574.00;1698450;84;21071;-77
2021/08/02 02:14:36;;;;;;;14.60;10.30;;;;;;;21.74;71.32;99575.34;1698354;84;20972;-77
2021/08/02 02:17:03;;;;;;;16.60;10.50;;;;;;;21.79;71.26;99576.34;1698852;84;21824;-78
2021/08/02 02:19:33;;;;;;;15.75;10.60;;;;;;;21.79;71.35;99568.80;1700832;84;21055;-78
2021/08/02 02:22:02;;;;;;;17.57;10.88;;;;;;;21.80;71.42;99571.27;1700987;84;21428;-81
2021/08/02 02:24:33;;;;;;;16.10;10.60;;;;;;;21.80;71.39;99571.27;1701476;84;20964;-77
2021/08/02 02:27:01;;;;;;;15.85;10.90;;;;;;;21.80;71.40;99571.27;1699175;84;20992;-77
2021/08/02 02:29:29;;;;;;;19.65;10.78;;;;;;;21.81;71.44;99574.28;1688405;84;21031;-77
2021/08/02 02:31:56;;;;;;;14.70;10.75;;;;;;;21.81;71.50;99572.94;1663977;85;21017;-77
2021/08/02 02:34:24;;;;;;;15.18;10.82;;;;;;;21.82;71.58;99576.45;1685326;85;21805;-78
2021/08/02 02:36:52;;;;;;;15.18;10.53;;;;;;;21.81;71.64;99574.77;1691187;84;21523;-77
2021/08/02 02:39:18;;;;;;;14.33;10.75;;;;;;;21.81;71.71;99572.94;1670955;84;21400;-77
2021/08/02 02:41:46;;;;;;;12.45;10.95;;;;;;;21.83;71.77;99566.83;1702085;84;21451;-76
2021/08/02 02:44:13;;;;;;;13.85;10.98;;;;;;;21.83;71.84;99556.07;1694269;84;20967;-76
2021/08/02 02:46:40;;;;;;;12.33;10.90;;;;;;;21.86;71.93;99552.95;1685401;84;22148;-76
2021/08/02 02:49:07;;;;;;;17.15;11.48;;;;;;;21.86;72.12;99546.22;1700804;84;21013;-77
2021/08/02 02:51:34;;;;;;;17.40;11.90;;;;;;;21.81;72.42;99552.78;1668698;84;21515;-78
2021/08/02 02:54:01;;;;;;;19.95;12.00;;;;;;;21.82;72.65;99554.95;1695964;84;21029;-78
2021/08/02 02:56:29;;;;;;;17.70;12.30;;;;;;;21.83;72.78;99566.00;1693924;84;21052;-79
2021/08/02 02:58:56;;;;;;;23.15;12.50;;;;;;;21.86;72.85;99564.22;1643572;84;22563;-79
2021/08/02 03:01:27;;;;;;;22.15;13.20;;;;;;;21.91;72.83;99565.75;1744845;81;21354;-79
2021/08/02 03:03:54;;;;;;;17.62;13.10;;;;;;;21.96;72.81;99573.98;1710441;82;21050;-78
2021/08/02 03:06:21;;;;;;;20.32;12.50;;;;;;;21.98;72.78;99570.03;1711504;82;20993;-78
2021/08/02 03:08:49;;;;;;;19.85;12.33;;;;;;;;;;1747888;82;21446;-78
2021/08/02 03:11:16;;;;;;;22.15;12.70;;;;;;;22.10;72.62;99572.06;1752602;82;22381;-78
2021/08/02 03:13:44;;;;;;;18.80;11.48;;;;;;;22.07;72.74;99573.85;1752523;82;21502;-78
2021/08/02 03:16:12;;;;;;;17.27;12.33;;;;;;;22.07;72.85;99574.67;1752634;82;20952;-78
2021/08/02 03:18:39;;;;;;;22.22;12.35;;;;;;;22.09;72.86;99574.45;1746104;82;20954;-77
2021/08/02 03:21:06;;;;;;;20.15;12.88;;;;;;;22.09;72.84;99582.52;1741971;81;21000;-77
2021/08/02 03:24:13;;;;;;;17.48;12.28;;;;;;;22.09;72.75;99580.66;1751844;82;21811;-77
2021/08/02 03:26:54;;;;;;;20.77;13.25;;;;;;;22.11;72.61;99581.29;1752947;81;20953;-77
2021/08/02 03:29:37;;;;;;;21.62;12.88;;;;;;;22.08;72.48;99580.88;1749635;82;21001;-77
2021/08/02 03:32:10;;;;;;;23.18;13.98;;;;;;;22.08;72.33;99581.70;1714648;82;20973;-77
2021/08/02 03:34:37;;;;;;;20.92;13.48;;;;;;;21.97;72.44;99579.66;1749367;82;21057;-77
2021/08/02 03:37:06;;;;;;;23.30;13.62;;;;;;;21.90;72.63;99571.63;1749785;82;21753;-76
2021/08/02 03:39:33;;;;;;;21.33;12.93;;;;;;;21.88;72.72;99576.40;1741851;82;20957;-76
2021/08/02 03:42:01;;;;;;;20.72;13.40;;;;;;;21.85;72.88;99580.05;1739825;82;20989;-80
2021/08/02 03:44:27;;;;;;;20.43;13.10;;;;;;;21.89;72.85;99578.56;1743222;81;21546;-78
2021/08/02 03:46:54;;;;;;;23.12;13.72;;;;;;;21.90;72.90;99571.63;1743341;80;21543;-79
2021/08/02 03:49:21;;;;;;;18.42;13.10;;;;;;;21.81;73.22;99567.56;1749931;81;22855;-80
2021/08/02 03:51:59;;;;;;;21.02;13.40;;;;;;;21.84;73.33;99565.78;1739269;82;21032;-81
2021/08/02 03:54:28;;;;;;;18.92;12.90;;;;;;;21.84;73.45;99565.78;1746893;82;20996;-82
2021/08/02 03:56:57;;;;;;;18.35;12.98;;;;;;;21.89;73.61;99562.44;1745110;82;21464;-80
2021/08/02 03:59:24;;;;;;;16.57;12.13;;;;;;;21.93;73.75;99560.98;1747837;82;21019;-78
2021/08/02 04:01:50;;;;;;;19.23;12.58;;;;;;;21.96;73.83;99553.82;1749162;81;22186;-78
2021/08/02 04:04:17;;;;;;;27.82;13.38;;;;;;;22.08;73.85;99562.05;1742521;82;21057;-75
2021/08/02 04:06:43;;;;;;;17.57;12.90;;;;;;;22.10;73.99;99566.20;1746024;82;20945;-75
2021/08/02 04:09:11;;;;;;;16.40;12.47;;;;;;;22.17;73.96;99560.23;1747003;81;21373;-76
2021/08/02 04:11:40;;;;;;;16.67;12.93;;;;;;;22.22;73.97;99555.04;1743199;81;20980;-82
2021/08/02 04:14:08;;;;;;;21.33;12.90;;;;;;;22.31;73.89;99560.16;1745506;82;22256;-81
2021/08/02 04:16:35;;;;;;;19.80;13.22;;;;;;;22.35;73.92;99563.53;1749497;82;21004;-84
2021/08/02 04:19:02;;;;;;;19.50;12.90;;;;;;;22.40;73.94;99560.20;1749924;81;20960;-84
2021/08/02 04:21:29;;;;;;;18.37;12.50;;;;;;;22.46;74.00;99560.66;1745845;82;20976;-81
2021/08/02 04:23:55;;;;;;;23.10;13.15;;;;;;;22.54;73.99;99566.59;1752914;81;21051;-81
2021/08/02 04:26:22;;;;;;;18.82;13.48;;;;;;;22.62;73.87;99570.89;1745306;82;22632;-74
2021/08/02 04:28:56;;;;;;;19.85;13.40;;;;;;;22.67;73.75;99564.83;1737827;82;20941;-76
2021/08/02 04:31:20;;;;;;;16.50;12.90;;;;;;;22.72;73.71;99564.48;1741957;81;20997;-75
2021/08/02 04:33:47;;;;;;;20.57;13.43;;;;;;;22.77;73.66;99556.55;1752281;81;21483;-74
2021/08/02 04:36:13;;;;;;;17.77;13.08;;;;;;;22.82;73.66;99555.38;1744461;81;21004;-80
2021/08/02 04:38:40;;;;;;;20.05;13.30;;;;;;;22.89;73.66;99551.33;1749714;81;22454;-85
2021/08/02 04:41:06;;;;;;;21.25;13.10;;;;;;;22.95;73.55;99541.52;1748496;82;21139;-83
2021/08/02 04:43:32;;;;;;;17.02;12.23;;;;;;;23.00;73.52;99537.65;1747186;82;21005;-83
2021/08/02 04:45:59;;;;;;;18.87;12.98;;;;;;;23.10;73.52;99539.30;1750073;80;20960;-83
2021/08/02 04:48:25;;;;;;;17.52;13.03;;;;;;;23.22;73.23;99540.72;1741793;82;21035;-85
2021/08/02 04:50:52;;;;;;;18.60;12.65;;;;;;;23.27;73.08;99540.36;1742539;82;22666;-79
2021/08/02 04:53:18;;;;;;;15.60;12.88;;;;;;;23.35;73.03;99547.30;1726960;81;21009;-79
2021/08/02 04:55:45;;;;;;;15.70;12.25;;;;;;;23.41;73.03;99539.14;1740052;81;21012;-81
2021/08/02 04:58:11;;;;;;;17.25;12.50;;;;;;;23.49;73.04;99535.86;1748385;81;20957;-83
2021/08/02 05:00:37;;;;;;;17.55;11.48;;;;;;;23.61;72.93;99528.67;1745222;81;21653;-81
2021/08/02 05:03:04;;;;;;;19.15;12.00;;;;;;;23.73;72.79;99538.16;1743741;81;22557;-82
2021/08/02 05:05:31;;;;;;;15.50;11.73;;;;;;;23.84;72.48;99545.50;1754109;81;21401;-81
2021/08/02 05:07:59;;;;;;;17.77;11.93;;;;;;;23.90;72.34;99557.53;1755562;81;20932;-78
2021/08/02 05:10:25;;;;;;;19.23;12.80;;;;;;;23.99;72.26;99569.64;1750382;81;21004;-78
2021/08/02 05:12:52;;;;;;;19.15;13.30;;;;;;;24.08;72.01;99574.72;1745520;82;20933;-84
2021/08/02 05:15:20;;;;;;;19.60;12.80;;;;;;;24.09;72.02;99577.19;1753132;81;22638;-81
2021/08/02 05:17:47;;;;;;;22.22;12.25;;;;;;;24.11;72.05;99572.38;1748218;81;21000;-79
2021/08/02 05:20:13;;;;;;;19.23;12.80;;;;;;;24.19;72.25;99568.54;1749193;82;21048;-81
2021/08/02 05:22:40;;;;;;;19.40;11.95;;;;;;;24.24;72.07;99568.16;1749452;82;20997;-80
2021/08/02 05:25:08;;;;;;;15.53;12.13;;;;;;;24.33;72.08;99566.52;1749286;82;21016;-80
2021/08/02 05:27:35;;;;;;;19.85;11.88;;;;;;;24.42;71.97;99548.41;1747020;81;21854;-80
2021/08/02 05:30:02;;;;;;;16.57;11.25;;;;;;;24.49;71.81;99532.90;1707660;83;21051;-80
2021/08/02 05:32:28;;;;;;;18.95;10.82;;;;;;;24.57;71.96;99532.27;1719544;82;21023;-80
2021/08/02 05:34:55;;;;;;;16.57;11.40;;;;;;;24.70;71.83;99523.94;1684920;84;21527;-83
2021/08/02 05:37:21;;;;;;;15.23;11.22;;;;;;;24.82;71.75;99537.75;1693608;84;20961;-82
2021/08/02 05:39:48;;;;;;;16.87;10.72;;;;;;;24.95;71.46;99525.06;1698792;84;21761;-81
2021/08/02 05:42:14;;;;;;;12.68;10.88;;;;;;;25.05;71.28;99524.78;1693402;84;21058;-82
2021/08/02 05:44:41;;;;;;;14.87;10.08;;;;;;;25.15;70.99;99540.39;1685728;85;20975;-83
2021/08/02 05:47:11;;;;;;;15.78;10.50;;;;;;;25.25;70.76;99543.31;1690784;84;20997;-82
2021/08/02 05:49:37;;;;;;;11.78;10.40;;;;;;;25.33;70.42;99536.73;1702602;84;21002;-81
2021/08/02 05:52:04;;;;;;;11.55;10.05;;;;;;;25.30;69.99;99537.21;1699080;84;21854;-81
2021/08/02 05:54:31;;;;;;;14.50;9.93;;;;;;;25.31;69.94;99541.55;1732510;80;21504;-82
2021/08/02 05:56:58;;;;;;;14.68;10.08;;;;;;;25.43;69.62;99536.94;1740354;80;21435;-79
2021/08/02 05:59:24;;;;;;;18.98;10.53;;;;;;;25.54;69.27;99540.67;1748960;80;21545;-75
2021/08/02 06:01:51;;;;;;;12.37;9.58;;;;;;;25.71;68.82;99548.88;1752148;80;21097;-77
2021/08/02 06:04:18;;;;;;;13.35;9.58;;;;;;;25.77;68.50;99526.27;1749777;82;22263;-75
2021/08/02 06:06:44;;;;;;;11.95;9.63;;;;;;;25.93;67.94;99508.73;1745352;80;21019;-78
2021/08/02 06:09:11;;;;;;;13.10;9.65;;;;;;;26.00;68.13;99521.30;1738509;82;21484;-75
2021/08/02 06:11:38;;;;;;;14.53;9.25;;;;;;;26.14;67.84;99531.55;1751412;82;21415;-76
2021/08/02 06:14:05;;;;;;;16.40;9.28;;;;;;;26.27;67.42;99517.44;1752891;81;21056;-76
2021/08/02 06:16:33;;;;;;;15.53;9.70;;;;;;;26.45;67.24;99511.82;1752623;82;20949;-76
2021/08/02 06:19:01;;;;;;;15.43;9.43;;;;;;;26.70;66.84;99518.97;1752550;82;20933;-77
2021/08/02 06:21:27;;;;;;;13.00;8.65;;;;;;;26.85;66.22;99514.86;1760225;80;20992;-77
2021/08/02 06:23:54;;;;;;;10.48;8.45;;;;;;;26.90;66.07;99500.02;1766015;80;21414;-77
2021/08/02 06:26:21;;;;;;;12.25;9.53;;;;;;;26.97;65.63;99509.61;1748224;82;21001;-78
2021/08/02 06:28:50;;;;;;;11.12;8.60;;;;;;;27.03;65.21;99501.88;1680893;83;21790;-77
2021/08/02 06:31:19;;;;;;;16.97;8.95;;;;;;;27.08;64.74;99496.50;1744451;80;20864;-75
2021/08/02 06:33:45;;;;;;;11.80;9.23;;;;;;;27.24;64.31;99494.83;1719135;80;21057;-76
2021/08/02 06:36:12;;;;;;;10.45;9.00;;;;;;;27.33;64.14;99492.49;1738131;80;20940;-75
2021/08/02 06:38:39;;;;;;;12.07;8.70;;;;;;;27.41;63.87;99490.70;1762608;80;21106;-76
2021/08/02 06:41:06;;;;;;;12.93;8.48;;;;;;;27.50;63.69;99479.66;1750126;80;21791;-78
2021/08/02 06:43:32;;;;;;;10.68;8.80;;;;;;;27.73;62.95;99479.13;1751515;80;21530;-78
2021/08/02 06:45:59;;;;;;;12.88;9.08;;;;;;;27.76;62.82;99476.72;1752627;80;20944;-80
2021/08/02 06:48:25;;;;;;;13.65;9.70;;;;;;;27.88;62.24;99476.02;1716216;82;21528;-75
2021/08/02 06:50:52;;;;;;;16.87;9.50;;;;;;;27.92;62.08;99469.02;1693819;83;20901;-78
2021/08/02 06:53:18;;;;;;;13.03;9.85;;;;;;;27.92;62.05;99469.02;1729825;82;22839;-79
2021/08/02 06:55:47;;;;;;;15.88;10.10;;;;;;;27.89;62.11;99465.47;1746422;82;21471;-78
2021/08/02 06:58:15;;;;;;;12.23;9.90;;;;;;;27.91;62.04;99466.56;1745023;82;21048;-78
2021/08/02 07:00:42;;;;;;;11.00;9.03;;;;;;;27.89;62.28;99464.62;1737861;82;20951;-79
2021/08/02 07:03:09;;;;;;;18.85;9.48;;;;;;;27.91;62.24;99455.70;1744537;82;21484;-78
2021/08/02 07:05:36;;;;;;;11.28;9.28;;;;;;;27.86;62.42;99455.64;1745403;82;21811;-78
2021/08/02 07:08:03;;;;;;;12.33;9.55;;;;;;;27.85;62.58;99448.04;1716701;83;20969;-78
2021/08/02 07:10:30;;;;;;;10.60;9.25;;;;;;;27.87;62.78;99449.13;1715124;83;20962;-79
2021/08/02 07:12:56;;;;;;;17.62;9.90;;;;;;;27.93;62.90;99444.86;1684212;84;21012;-79
2021/08/02 07:15:25;;;;;;;16.50;9.93;;;;;;;28.06;62.57;99449.58;1700571;84;21063;-79
2021/08/02 07:17:51;;;;;;;11.28;9.48;;;;;;;28.14;61.94;99439.60;1680035;85;22261;-78
2021/08/02 07:20:17;;;;;;;11.12;9.10;;;;;;;28.25;62.16;99437.23;1677875;85;21028;-77
2021/08/02 07:22:44;;;;;;;17.62;9.83;;;;;;;28.36;62.05;99439.52;1744966;82;21052;-77
2021/08/02 07:25:11;;;;;;;14.33;9.85;;;;;;;28.39;61.32;99433.59;1741484;82;21036;-77
2021/08/02 07:27:38;;;;;;;10.78;9.65;;;;;;;28.38;61.05;99432.77;1741952;82;21022;-77
2021/08/02 07:30:08;;;;;;;15.93;10.05;;;;;;;28.43;60.97;99431.43;1742882;82;22218;-77
2021/08/02 07:32:34;;;;;;;14.15;9.75;;;;;;;28.55;61.22;99431.77;1744144;82;21082;-73
2021/08/02 07:35:01;;;;;;;11.48;9.20;;;;;;;28.66;60.38;99423.44;1721921;82;20945;-74
2021/08/02 07:37:28;;;;;;;11.80;9.50;;;;;;;28.79;60.34;99430.28;1738387;81;21015;-74
2021/08/02 07:39:54;;;;;;;13.08;9.38;;;;;;;28.92;59.93;99433.09;1752071;82;21048;-73
2021/08/02 07:42:21;;;;;;;12.63;9.50;;;;;;;29.04;59.92;99424.98;1752900;81;22165;-73
2021/08/02 07:44:48;;;;;;;14.33;9.30;;;;;;;29.18;60.05;99423.14;1752520;82;20954;-73
2021/08/02 07:47:14;;;;;;;12.85;8.75;;;;;;;29.41;59.76;99424.02;1749399;80;21047;-75
2021/08/02 07:49:41;;;;;;;13.25;8.80;;;;;;;29.56;58.74;99421.37;1749705;82;20970;-75
2021/08/02 07:52:07;;;;;;;13.10;8.75;;;;;;;29.70;57.36;99423.55;1741990;82;21022;-77
2021/08/02 07:54:34;;;;;;;11.55;7.78;;;;;;;29.75;56.65;99422.22;1757941;81;21818;-79
2021/08/02 07:57:01;;;;;;;14.10;7.90;;;;;;;29.82;56.20;99417.30;1762075;81;20938;-79
2021/08/02 07:59:28;;;;;;;12.33;8.05;;;;;;;29.97;54.69;99415.14;1762567;81;21035;-75
2021/08/02 08:01:54;;;;;;;13.43;7.78;;;;;;;30.01;55.03;99411.59;1750934;81;21005;-75
2021/08/02 08:04:21;;;;;;;15.80;7.58;;;;;;;30.12;55.10;99406.46;1754151;81;20988;-76
2021/08/02 08:06:47;;;;;;;12.98;7.95;;;;;;;30.28;54.35;99418.14;1746208;81;22201;-75
2021/08/02 08:09:14;;;;;;;12.88;7.30;;;;;;;30.40;53.15;99424.14;1729728;81;21004;-75
2021/08/02 08:11:40;;;;;;;14.83;7.67;;;;;;;30.46;52.47;99419.48;1750982;81;20964;-75
2021/08/02 08:14:07;;;;;;;12.68;7.95;;;;;;;30.46;53.13;99423.02;1755796;81;21029;-75
2021/08/02 08:16:35;;;;;;;18.32;7.72;;;;;;;30.45;52.10;99415.13;1755492;81;21534;-75
2021/08/02 08:19:01;;;;;;;11.35;7.62;;;;;;;30.49;52.81;99409.38;1755541;81;22814;-76
2021/08/02 08:21:27;;;;;;;13.48;8.23;;;;;;;30.52;52.55;99393.86;1747073;81;21090;-76
2021/08/02 08:23:55;;;;;;;16.50;8.08;;;;;;;30.58;52.99;99390.01;1749105;81;20966;-75
2021/08/02 08:26:22;;;;;;;14.05;8.23;;;;;;;30.67;52.32;99387.02;1740327;82;20960;-75
2021/08/02 08:28:48;;;;;;;15.95;7.85;;;;;;;30.70;51.94;99387.03;1740760;82;21065;-80
2021/08/02 08:31:17;;;;;;;17.52;7.75;;;;;;;30.70;51.94;99387.03;1740411;82;22833;-79
2021/08/02 08:33:43;;;;;;;12.68;7.50;;;;;;;30.67;50.70;99384.84;1742499;81;20976;-79
2021/08/02 08:36:14;;;;;;;13.80;8.28;;;;;;;30.49;50.44;99401.20;1748565;81;20997;-78
2021/08/02 08:38:40;;;;;;;11.57;7.40;;;;;;;30.49;50.44;99401.20;1748380;81;20969;-78
2021/08/02 08:41:06;;;;;;;11.20;7.53;;;;;;;30.49;50.17;99409.38;1752198;81;21040;-78
2021/08/02 08:43:33;;;;;;;13.75;7.40;;;;;;;30.48;50.77;99410.47;1748556;81;22248;-79
2021/08/02 08:45:59;;;;;;;11.55;7.62;;;;;;;30.47;50.64;99413.75;1725177;83;20953;-78
2021/08/02 08:48:27;;;;;;;9.40;7.65;;;;;;;30.61;50.90;99423.55;1742124;81;21060;-77
2021/08/02 08:50:54;;;;;;;11.18;7.70;;;;;;;30.64;50.46;99424.89;1749986;81;21419;-78
2021/08/02 08:53:21;;;;;;;10.03;7.67;;;;;;;30.70;50.75;99432.00;1755082;81;21016;-82
2021/08/02 08:55:48;;;;;;;11.10;7.95;;;;;;;30.70;50.37;99439.63;1749735;82;21690;-77
2021/08/02 08:58:15;;;;;;;11.00;8.28;;;;;;;30.67;51.36;99432.53;1740907;81;21047;-78
2021/08/02 09:00:41;;;;;;;12.00;8.10;;;;;;;30.68;50.75;99440.98;1737635;82;20946;-81
2021/08/02 09:03:14;;;;;;;15.83;7.90;;;;;;;30.68;50.75;99440.98;1738831;81;21052;-79
2021/08/02 09:05:40;;;;;;;11.57;8.00;;;;;;;30.59;51.25;99424.34;1742558;82;21420;-79
2021/08/02 09:08:17;;;;;;;15.32;8.55;;;;;;;30.55;50.62;99422.45;1741042;82;21913;-77
2021/08/02 09:10:37;;;;;;;16.10;8.50;;;;;;;30.56;51.46;99426.27;1710225;82;21133;-77
2021/08/02 09:13:05;;;;;;;11.95;8.35;;;;;;;30.59;50.69;99424.34;1741546;82;21356;-78
2021/08/02 09:15:42;;;;;;;12.90;8.70;;;;;;;30.61;50.90;99424.91;1742951;82;20957;-77
2021/08/02 09:18:12;;;;;;;11.05;8.28;;;;;;;30.65;51.03;99426.00;1743664;82;21052;-77
2021/08/02 09:20:39;;;;;;;14.07;8.88;;;;;;;30.73;50.61;99424.63;1745789;82;21817;-77
2021/08/02 09:23:14;;;;;;;13.43;9.23;;;;;;;30.87;50.16;99420.20;1752827;82;20980;-78
2021/08/02 09:25:50;;;;;;;15.95;9.13;;;;;;;31.00;49.44;99415.53;1752695;82;20949;-77
2021/08/02 09:28:21;;;;;;;12.33;9.43;;;;;;;31.10;49.44;99417.95;1715869;83;20969;-76
2021/08/02 09:31:03;;;;;;;12.10;9.50;;;;;;;31.16;48.91;99411.35;1716974;83;21022;-77
2021/08/02 09:33:46;;;;;;;14.23;9.48;;;;;;;31.20;48.63;99424.72;1703976;83;21834;-77
2021/08/02 09:36:13;;;;;;;;;;;;;;;31.15;47.42;99425.55;1751987;81;20975;-80
2021/08/02 09:38:40;;;;;;;12.28;8.95;;;;;;;30.84;47.85;99418.59;1746614;82;20147;-82
2021/08/02 09:41:07;;;;;;;15.83;9.58;;;;;;;30.84;47.85;99418.59;1741368;82;21001;-81
2021/08/02 09:43:34;;;;;;;12.98;9.55;;;;;;;30.81;48.37;99426.78;1749771;82;21091;-81
2021/08/02 09:46:03;;;;;;;12.80;8.83;;;;;;;30.81;48.90;99425.97;1709264;82;21801;-82
2021/08/02 09:48:45;;;;;;;16.00;9.20;;;;;;;30.83;47.84;99425.14;1712669;82;21644;-82
2021/08/02 09:51:19;;;;;;;16.43;9.33;;;;;;;30.88;47.49;99422.37;1743908;82;21001;-80
2021/08/02 09:53:52;;;;;;;11.55;8.38;;;;;;;30.95;48.43;99428.36;1743643;82;20997;-77
2021/08/02 09:56:20;;;;;;;11.18;8.93;;;;;;;31.04;46.83;99434.88;1743680;82;20993;-76
2021/08/02 09:58:47;;;;;;;12.53;9.20;;;;;;;31.03;46.96;99435.97;1743928;82;22526;-76
2021/08/02 10:01:16;;;;;;;19.40;9.00;;;;;;;31.00;47.32;99435.17;1746111;82;21008;-76
2021/08/02 10:03:43;;;;;;;12.82;8.68;;;;;;;30.98;47.18;99453.70;1710371;83;21474;-73
2021/08/02 10:06:13;;;;;;;14.47;8.88;;;;;;;30.91;46.48;99430.02;1742271;82;21384;-76
2021/08/02 10:08:42;;;;;;;15.80;9.43;;;;;;;30.83;47.45;99438.23;1743741;82;20946;-76
2021/08/02 10:11:09;;;;;;;11.78;8.90;;;;;;;30.83;47.45;99438.23;1743692;82;21813;-72
2021/08/02 10:13:42;;;;;;;13.25;8.75;;;;;;;30.76;47.36;99439.88;1739000;81;21044;-72
2021/08/02 10:16:15;;;;;;;11.45;8.28;;;;;;;30.70;47.65;99424.64;1736428;82;21602;-71
2021/08/02 10:18:50;;;;;;;12.25;9.15;;;;;;;30.71;47.85;99427.63;1714035;82;20946;-71
2021/08/02 10:21:17;;;;;;;12.47;8.53;;;;;;;30.69;47.52;99420.80;1741549;82;21005;-71
2021/08/02 10:23:44;;;;;;;12.50;8.70;;;;;;;30.63;47.91;99422.72;1742728;82;22244;-71
2021/08/02 10:26:29;;;;;;;16.60;9.08;;;;;;;30.62;48.06;99420.27;1743513;82;20943;-70
2021/08/02 10:28:58;;;;;;;10.53;8.83;;;;;;;30.62;48.06;99420.27;1743636;82;20989;-70
2021/08/02 10:31:27;;;;;;;15.23;9.65;;;;;;;30.61;48.04;99422.18;1751676;82;21091;-71
2021/08/02 10:33:55;;;;;;;14.13;9.78;;;;;;;30.60;48.11;99416.46;1743520;82;20944;-71
2021/08/02 10:36:23;;;;;;;9.93;8.93;;;;;;;30.63;48.46;99413.17;1727127;82;22427;-71
2021/08/02 10:38:52;;;;;;;13.38;9.80;;;;;;;30.67;48.62;99415.63;1726841;83;20949;-70
2021/08/02 10:41:26;;;;;;;13.05;10.08;;;;;;;30.76;48.60;99400.34;1713813;83;20989;-74
2021/08/02 10:43:53;;;;;;;14.83;9.08;;;;;;;31.10;49.28;99408.40;1749531;82;21231;-73
2021/08/02 10:46:26;;;;;;;10.78;9.10;;;;;;;31.10;49.28;99408.40;1749575;82;20996;-73
2021/08/02 10:48:55;;;;;;;16.32;9.83;;;;;;;31.37;48.06;99402.02;1752056;82;21861;-75
2021/08/02 10:51:23;;;;;;;11.55;9.53;;;;;;;31.61;48.22;99395.30;1752833;81;20961;-76
2021/08/02 10:54:01;;;;;;;13.43;9.83;;;;;;;31.82;48.04;99383.69;1752203;81;21091;-76
2021/08/02 10:56:30;;;;;;;18.52;10.43;;;;;;;31.98;47.96;99384.39;1702992;84;21071;-76
2021/08/02 10:58:57;;;;;;;12.53;8.98;;;;;;;32.03;46.99;99381.59;1705344;84;21035;-75
2021/08/02 11:01:27;;;;;;;10.85;8.80;;;;;;;32.01;46.73;99379.70;1681473;84;22393;-75
2021/08/02 11:03:55;;;;;;;9.73;7.95;;;;;;;31.93;45.72;99389.88;1684274;84;21057;-76
2021/08/02 11:06:21;;;;;;;9.95;7.90;;;;;;;31.79;44.33;99396.56;1705257;83;20969;-77
2021/08/02 11:08:53;;;;;;;11.45;7.33;;;;;;;31.62;44.07;99387.36;1676589;85;21016;-81
2021/08/02 11:11:26;;;;;;;16.52;8.28;;;;;;;31.47;44.06;99367.02;1726392;82;20955;-73
2021/08/02 11:14:05;;;;;;;12.53;8.00;;;;;;;31.32;44.48;99353.73;1723353;82;22456;-73
2021/08/02 11:16:49;;;;;;;11.88;8.43;;;;;;;31.21;45.05;99352.17;1697664;83;20954;-75
2021/08/02 11:19:21;;;;;;;;;;;;;;;31.10;45.70;99377.03;1700325;82;21443;-76
2021/08/02 11:21:58;;;;;;;9.48;7.33;;;;;;;30.98;46.54;99383.64;1692335;84;20429;-78
2021/08/02 11:24:25;;;;;;;14.00;8.80;;;;;;;30.84;48.43;99373.60;1703656;83;21493;-77
2021/08/02 11:26:58;;;;;;;14.93;8.40;;;;;;;30.49;49.66;99363.05;1719872;82;22653;-77
2021/08/02 11:29:27;;;;;;;12.80;9.58;;;;;;;30.15;50.66;99371.05;1717991;83;20946;-77
2021/08/02 11:32:08;;;;;;;13.10;9.20;;;;;;;29.85;51.61;99364.51;1669802;84;21071;-78
2021/08/02 11:34:35;;;;;;;14.15;9.58;;;;;;;29.31;53.24;99371.77;1694141;83;21051;-74